Burns Township, Minnesota
Current Conditions -  °F | °C
As of 2:14 PM on Sunday 25 Jan 2015 (Local Time) from KPNM Reporting Station
Clear Clear  
Wind Chill: 27°   Ceiling: Unl
Heat Index: 27°   Visibility: 10mi
Dew Point: 16°   Wind: 3mph
Humidity: 64%   Direction: 360°N
Pressure: 30.04"   Gusts: NA
Location:  45.345°N, 93.5658°W
Report Text: KPNM 252014Z AUTO 36003KT 10SM CLR M03/M09 A3004 RMK AO2
Loading
Personal Weather Stations






























Interactive Weather Map New forecast layout! Learn more

10-Day Weather Forecast

Advertisements
Track Severe Weather on mobile